createdAt,value
2023-01-29T00:00:00.205Z,-2.64
2023-01-29T00:02:56.484Z,-2.53
2023-01-29T00:05:29.428Z,-2.71
2023-01-29T00:08:22.720Z,-2.85
2023-01-29T00:11:28.364Z,-2.93
2023-01-29T00:14:03.180Z,-2.97
2023-01-29T00:16:42.343Z,-2.99
2023-01-29T00:19:12.073Z,-2.98
2023-01-29T00:21:49.644Z,-2.71
2023-01-29T00:24:19.913Z,-2.50
2023-01-29T00:27:15.860Z,-2.58
2023-01-29T00:30:19.462Z,-2.73
2023-01-29T00:32:54.264Z,-2.87
2023-01-29T00:35:25.518Z,-2.98
2023-01-29T00:38:00.042Z,-3.04
2023-01-29T00:40:52.992Z,-2.99
2023-01-29T00:43:52.177Z,-2.60
2023-01-29T00:46:23.806Z,-2.51
2023-01-29T00:48:56.555Z,-2.69
2023-01-29T00:51:32.757Z,-2.79
2023-01-29T00:54:06.154Z,-2.87
2023-01-29T00:56:38.347Z,-2.95
2023-01-29T00:59:08.927Z,-2.94
2023-01-29T01:02:04.929Z,-2.65
2023-01-29T01:04:39.876Z,-2.58
2023-01-29T01:10:08.757Z,-2.81
2023-01-29T01:12:54.759Z,-2.89
2023-01-29T01:16:18.155Z,-2.98
2023-01-29T01:19:10.058Z,-2.87
2023-01-29T01:21:47.763Z,-2.48
2023-01-29T01:24:18.662Z,-2.43
2023-01-29T01:26:52.404Z,-2.63
2023-01-29T01:29:21.891Z,-2.74
2023-01-29T01:31:53.560Z,-2.75
2023-01-29T01:34:26.639Z,-2.82
2023-01-29T01:37:02.670Z,-2.90
2023-01-29T01:39:35.349Z,-2.87
2023-01-29T01:42:33.842Z,-2.49
2023-01-29T01:45:22.954Z,-2.40
2023-01-29T01:48:22.640Z,-2.61
2023-01-29T01:51:06.471Z,-2.76
2023-01-29T01:53:46.119Z,-2.86
2023-01-29T01:56:44.771Z,-2.94
2023-01-29T01:59:48.692Z,-2.75
2023-01-29T02:09:34.891Z,-2.67
2023-01-29T02:12:06.895Z,-2.73
2023-01-29T02:14:40.419Z,-2.75
2023-01-29T02:17:16.924Z,-2.73
2023-01-29T02:20:24.069Z,-2.45
2023-01-29T02:23:28.960Z,-2.16
2023-01-29T02:26:26.306Z,-2.36
2023-01-29T02:29:26.464Z,-2.55
2023-01-29T02:32:22.705Z,-2.70
2023-01-29T02:35:38.089Z,-2.77
2023-01-29T02:38:23.896Z,-2.82
2023-01-29T02:41:32.370Z,-2.53
2023-01-29T02:44:18.934Z,-2.34
2023-01-29T02:47:16.530Z,-2.50
2023-01-29T02:49:56.570Z,-2.60
2023-01-29T02:52:33.728Z,-2.66
2023-01-29T02:55:18.026Z,-2.70
2023-01-29T02:58:04.250Z,-2.69
2023-01-29T03:00:39.846Z,-2.33
2023-01-29T03:04:06.904Z,-2.17
2023-01-29T03:06:44.672Z,-2.30
2023-01-29T03:09:21.518Z,-2.38
2023-01-29T03:12:33.588Z,-2.42
2023-01-29T03:15:12.024Z,-2.49
2023-01-29T03:18:18.072Z,-2.43
2023-01-29T03:20:53.196Z,-1.97
2023-01-29T03:26:03.425Z,-1.96
2023-01-29T03:28:59.908Z,-2.09
2023-01-29T03:31:54.943Z,-2.20
2023-01-29T03:34:35.422Z,-2.25
2023-01-29T03:38:52.050Z,-2.40
2023-01-29T03:42:01.982Z,-1.98
2023-01-29T03:44:41.547Z,-1.87
2023-01-29T03:47:54.995Z,-2.08
2023-01-29T03:51:00.557Z,-2.18
2023-01-29T03:54:11.812Z,-2.28
2023-01-29T03:56:49.737Z,-2.39
2023-01-29T04:00:01.719Z,-2.42
2023-01-29T04:03:18.438Z,-2.03
2023-01-29T04:05:59.374Z,-1.90
2023-01-29T04:08:42.423Z,-2.08
2023-01-29T04:11:18.306Z,-2.20
2023-01-29T04:14:17.812Z,-2.30
2023-01-29T04:17:01.390Z,-2.34
2023-01-29T04:19:42.270Z,-2.39
2023-01-29T04:22:44.289Z,-2.37
2023-01-29T04:25:26.754Z,-1.98
2023-01-29T04:28:20.474Z,-2.00
2023-01-29T04:31:00.765Z,-2.15
2023-01-29T04:34:14.439Z,-2.24
2023-01-29T04:36:56.597Z,-2.31
2023-01-29T04:40:18.268Z,-2.35
2023-01-29T04:43:27.231Z,-2.17
2023-01-29T04:46:07.831Z,-1.73
2023-01-29T04:49:31.683Z,-1.81
2023-01-29T04:52:18.194Z,-1.91
2023-01-29T04:54:56.822Z,-1.94
2023-01-29T04:58:14.775Z,-1.97
2023-01-29T05:01:12.209Z,-2.03
2023-01-29T05:03:45.246Z,-2.15
2023-01-29T05:06:17.724Z,-2.05
2023-01-29T05:09:19.890Z,-1.69
2023-01-29T05:12:19.197Z,-1.65
2023-01-29T05:14:55.464Z,-1.82
2023-01-29T05:17:26.155Z,-1.94
2023-01-29T05:19:59.848Z,-2.03
2023-01-29T05:22:30.330Z,-2.11
2023-01-29T05:25:02.190Z,-2.16
2023-01-29T05:28:05.480Z,-2.19
2023-01-29T05:30:37.187Z,-1.74
2023-01-29T05:33:19.954Z,-1.68
2023-01-29T05:35:54.245Z,-1.87
2023-01-29T05:38:53.786Z,-1.98
2023-01-29T05:42:26.454Z,-2.07
2023-01-29T05:44:58.630Z,-2.16
2023-01-29T05:47:30.718Z,-2.15
2023-01-29T05:50:01.967Z,-1.77
2023-01-29T05:52:34.902Z,-1.57
2023-01-29T05:55:08.611Z,-1.72
2023-01-29T05:57:41.572Z,-1.89
2023-01-29T06:00:42.817Z,-1.96
2023-01-29T06:03:16.981Z,-1.96
2023-01-29T06:06:26.705Z,-1.97
2023-01-29T06:09:03.564Z,-1.94
2023-01-29T06:11:45.850Z,-1.64
2023-01-29T06:14:17.518Z,-1.46
2023-01-29T06:16:56.141Z,-1.61
2023-01-29T06:19:26.416Z,-1.76
2023-01-29T06:22:00.128Z,-1.83
2023-01-29T06:24:40.526Z,-1.85
2023-01-29T06:27:11.827Z,-1.87
2023-01-29T06:29:42.263Z,-1.88
2023-01-29T06:32:14.618Z,-1.60
2023-01-29T06:34:58.206Z,-1.44
2023-01-29T06:37:31.309Z,-1.60
2023-01-29T06:40:01.145Z,-1.74
2023-01-29T06:42:36.665Z,-1.80
2023-01-29T06:45:12.120Z,-1.82
2023-01-29T06:47:45.530Z,-1.83
2023-01-29T06:50:19.110Z,-1.78
2023-01-29T06:52:50.557Z,-1.44
2023-01-29T06:55:22.474Z,-1.33
2023-01-29T06:57:54.639Z,-1.47
2023-01-29T07:00:52.054Z,-1.55
2023-01-29T07:03:26.179Z,-1.68
2023-01-29T07:05:59.265Z,-1.67
2023-01-29T07:08:30.332Z,-1.75
2023-01-29T07:11:05.702Z,-1.76
2023-01-29T07:13:36.604Z,-1.45
2023-01-29T07:16:10.341Z,-1.29
2023-01-29T07:18:41.280Z,-1.41
2023-01-29T07:21:31.744Z,-1.51
2023-01-29T07:24:09.163Z,-1.61
2023-01-29T07:26:46.066Z,-1.71
2023-01-29T07:29:21.764Z,-1.79
2023-01-29T07:32:08.654Z,-1.68
2023-01-29T07:34:44.435Z,-1.37
2023-01-29T07:37:19.212Z,-1.48
2023-01-29T07:39:52.013Z,-1.59
2023-01-29T07:42:33.541Z,-1.64
2023-01-29T07:51:56.023Z,-1.57
2023-01-29T07:54:26.872Z,-1.16
2023-01-29T07:56:57.958Z,-1.10
2023-01-29T07:59:33.563Z,-1.18
2023-01-29T08:02:05.063Z,-1.24
2023-01-29T08:04:39.386Z,-1.35
2023-01-29T08:07:14.901Z,-1.44
2023-01-29T08:09:44.180Z,-1.46
2023-01-29T08:12:14.777Z,-1.43
2023-01-29T08:14:45.358Z,-1.13
2023-01-29T08:17:14.264Z,-0.89
2023-01-29T08:19:46.296Z,-0.99
2023-01-29T08:22:16.166Z,-1.09
2023-01-29T08:25:00.002Z,-1.11
2023-01-29T08:27:59.306Z,-1.13
2023-01-29T08:30:44.937Z,-1.17
2023-01-29T08:33:38.302Z,-1.32
2023-01-29T08:36:19.036Z,-1.30
2023-01-29T08:39:05.525Z,-1.21
2023-01-29T08:41:38.323Z,-0.80
2023-01-29T08:44:06.900Z,-0.60
2023-01-29T08:47:17.251Z,-0.74
2023-01-29T08:49:59.234Z,-0.90
2023-01-29T08:52:31.074Z,-1.03
2023-01-29T08:55:13.363Z,-1.11
2023-01-29T08:57:48.053Z,-1.11
2023-01-29T09:00:42.855Z,-1.16
2023-01-29T09:03:12.226Z,-1.09
2023-01-29T09:05:41.594Z,-1.08
2023-01-29T09:08:10.774Z,-0.72
2023-01-29T09:10:41.597Z,-0.47
2023-01-29T09:13:10.510Z,-0.58
2023-01-29T09:15:44.219Z,-0.69
2023-01-29T09:18:13.066Z,-0.72
2023-01-29T09:21:14.344Z,-0.73
2023-01-29T09:24:28.190Z,-0.74
2023-01-29T09:27:02.471Z,-0.78
2023-01-29T09:29:37.552Z,-0.84
2023-01-29T09:32:07.041Z,-0.84
2023-01-29T09:34:40.857Z,-0.45
2023-01-29T09:37:15.299Z,-0.20
2023-01-29T09:39:48.672Z,-0.31
2023-01-29T09:42:48.254Z,-0.50
2023-01-29T09:45:26.693Z,-0.66
2023-01-29T09:48:06.795Z,-0.72
2023-01-29T09:50:43.743Z,-0.71
2023-01-29T09:53:16.355Z,-0.66
2023-01-29T09:56:09.564Z,-0.62
2023-01-29T09:58:45.751Z,-0.63
2023-01-29T10:01:52.656Z,-0.63
2023-01-29T10:05:25.968Z,-0.28
2023-01-29T10:08:44.790Z,-0.11
2023-01-29T10:12:02.429Z,-0.29
2023-01-29T10:15:25.616Z,-0.32
2023-01-29T10:22:45.744Z,-0.30
2023-01-29T10:25:20.127Z,-0.35
2023-01-29T10:27:54.601Z,-0.37
2023-01-29T10:30:54.749Z,-0.32
2023-01-29T10:34:13.028Z,-0.28
2023-01-29T10:36:44.309Z,-0.05
2023-01-29T10:39:21.655Z,0.24
2023-01-29T10:42:21.225Z,0.16
2023-01-29T10:45:45.654Z,0.03
2023-01-29T10:48:56.003Z,-0.02
2023-01-29T10:52:06.172Z,-0.11
2023-01-29T10:55:37.078Z,-0.14
2023-01-29T10:58:57.369Z,-0.14
2023-01-29T11:01:38.189Z,-0.19
2023-01-29T11:04:52.693Z,-0.13
2023-01-29T11:07:54.905Z,0.08
2023-01-29T11:10:32.685Z,0.39
2023-01-29T11:13:21.828Z,0.35
2023-01-29T11:15:57.119Z,0.32
2023-01-29T11:18:58.378Z,0.31
2023-01-29T11:21:50.708Z,0.32
2023-01-29T11:26:06.944Z,0.33
2023-01-29T11:28:59.093Z,0.36
2023-01-29T11:37:13.949Z,0.32
2023-01-29T11:40:46.393Z,0.18
2023-01-29T11:43:34.135Z,0.07
2023-01-29T11:46:13.461Z,0.09
2023-01-29T11:49:55.912Z,0.09
2023-01-29T11:52:54.346Z,0.08
2023-01-29T11:55:24.403Z,0.12
2023-01-29T11:58:01.140Z,0.25
2023-01-29T12:00:55.055Z,0.49
2023-01-29T12:03:38.325Z,0.33
2023-01-29T12:06:14.122Z,0.24
2023-01-29T12:09:04.203Z,0.24
2023-01-29T12:11:33.172Z,0.28
2023-01-29T12:14:33.585Z,0.36
2023-01-29T12:17:23.925Z,0.43
2023-01-29T12:20:00.655Z,0.41
2023-01-29T12:22:57.840Z,0.40
2023-01-29T12:28:30.691Z,0.44
2023-01-29T12:35:57.961Z,0.42
2023-01-29T12:38:30.773Z,0.46
2023-01-29T12:41:02.990Z,0.48
2023-01-29T12:43:57.806Z,0.45
2023-01-29T12:46:32.594Z,0.40
2023-01-29T12:49:04.454Z,0.41
2023-01-29T12:51:38.639Z,0.42
2023-01-29T12:54:17.842Z,0.47
2023-01-29T12:56:55.087Z,0.53
2023-01-29T12:59:30.113Z,0.56
2023-01-29T13:02:28.814Z,0.53
2023-01-29T13:05:36.208Z,0.57
2023-01-29T13:08:10.344Z,0.48
2023-01-29T13:10:50.609Z,0.54
2023-01-29T13:13:40.642Z,0.53
2023-01-29T13:16:12.377Z,0.53
2023-01-29T13:19:30.805Z,0.51
2023-01-29T13:22:00.436Z,0.49
2023-01-29T13:24:36.881Z,0.47
2023-01-29T13:27:28.450Z,0.89
2023-01-29T13:30:32.447Z,1.10
2023-01-29T13:33:12.117Z,0.96
2023-01-29T13:36:14.057Z,0.84
2023-01-29T13:38:45.332Z,0.80
2023-01-29T13:41:31.035Z,0.78
2023-01-29T13:44:00.521Z,0.75
2023-01-29T13:46:30.527Z,0.70
2023-01-29T13:49:05.703Z,0.67
2023-01-29T13:51:36.362Z,0.66
2023-01-29T13:54:08.753Z,0.62
2023-01-29T13:57:05.446Z,0.54
2023-01-29T13:59:56.596Z,0.47
2023-01-29T14:02:30.327Z,0.47
2023-01-29T14:05:37.481Z,0.76
2023-01-29T14:08:09.545Z,0.91
2023-01-29T14:10:39.575Z,0.79
2023-01-29T14:13:18.594Z,0.73
2023-01-29T14:16:05.539Z,0.69
2023-01-29T14:18:40.096Z,0.67
2023-01-29T14:21:28.626Z,0.64
2023-01-29T14:24:09.577Z,0.61
2023-01-29T14:26:44.035Z,0.61
2023-01-29T14:29:21.637Z,0.61
2023-01-29T14:32:20.462Z,0.62
2023-01-29T14:35:03.895Z,0.65
2023-01-29T14:37:40.404Z,0.64
2023-01-29T14:40:23.270Z,0.65
2023-01-29T14:43:21.079Z,0.95
2023-01-29T14:46:01.654Z,1.23
2023-01-29T14:48:39.504Z,1.15
2023-01-29T14:51:13.385Z,0.94
2023-01-29T14:53:42.600Z,0.78
2023-01-29T14:56:33.694Z,0.68
2023-01-29T14:59:25.184Z,0.61
2023-01-29T15:01:58.022Z,0.59
2023-01-29T15:04:40.569Z,0.58
2023-01-29T15:07:12.836Z,0.60
2023-01-29T15:10:13.488Z,0.94
2023-01-29T15:12:58.319Z,1.18
2023-01-29T15:16:04.812Z,1.00
2023-01-29T15:18:35.711Z,0.83
2023-01-29T15:21:13.533Z,0.71
2023-01-29T15:23:46.825Z,0.69
2023-01-29T15:26:22.652Z,0.64
2023-01-29T15:29:03.348Z,0.60
2023-01-29T15:31:34.973Z,0.61
2023-01-29T15:34:06.677Z,0.98
2023-01-29T15:36:41.142Z,1.18
2023-01-29T15:39:22.802Z,1.04
2023-01-29T15:42:25.076Z,0.87
2023-01-29T15:44:57.380Z,0.78
2023-01-29T15:47:29.159Z,0.71
2023-01-29T15:50:00.275Z,0.64
2023-01-29T15:52:35.507Z,0.59
2023-01-29T15:57:53.787Z,0.37
2023-01-29T16:00:38.281Z,0.90
2023-01-29T16:03:34.549Z,0.86
2023-01-29T16:06:08.498Z,0.63
2023-01-29T16:08:38.617Z,0.49
2023-01-29T16:11:17.451Z,0.39
2023-01-29T16:13:50.423Z,0.31
2023-01-29T16:16:31.699Z,0.22
2023-01-29T16:19:25.880Z,0.18
2023-01-29T16:22:02.175Z,0.55
2023-01-29T16:24:38.918Z,0.68
2023-01-29T16:27:15.460Z,0.51
2023-01-29T16:29:50.568Z,0.37
2023-01-29T16:32:26.703Z,0.28
2023-01-29T16:34:59.347Z,0.22
2023-01-29T16:37:38.716Z,0.16
2023-01-29T16:40:57.878Z,0.11
2023-01-29T16:44:05.870Z,0.23
2023-01-29T16:46:48.830Z,0.64
2023-01-29T16:49:37.162Z,0.77
2023-01-29T16:52:28.666Z,0.63
2023-01-29T16:55:24.907Z,0.50
2023-01-29T16:57:57.901Z,0.47
2023-01-29T17:00:31.597Z,0.42
2023-01-29T17:03:12.689Z,0.42
2023-01-29T17:06:31.185Z,0.41
2023-01-29T17:09:03.648Z,0.56
2023-01-29T17:11:37.044Z,0.94
2023-01-29T17:14:12.024Z,1.07
2023-01-29T17:16:50.772Z,0.93
2023-01-29T17:19:21.369Z,0.80
2023-01-29T17:21:49.052Z,0.75
2023-01-29T17:24:51.021Z,0.71
2023-01-29T17:27:31.776Z,0.69
2023-01-29T17:30:00.741Z,0.67
2023-01-29T17:33:00.453Z,0.64
2023-01-29T17:35:56.245Z,0.90
2023-01-29T17:38:43.727Z,1.14
2023-01-29T17:44:05.364Z,1.01
2023-01-29T17:46:39.262Z,1.01
2023-01-29T17:49:35.578Z,0.93
2023-01-29T17:52:06.986Z,0.88
2023-01-29T17:55:05.239Z,0.81
2023-01-29T17:57:40.119Z,0.72
2023-01-29T18:00:31.525Z,0.61
2023-01-29T18:03:05.930Z,0.51
2023-01-29T18:06:31.408Z,0.52
2023-01-29T18:09:16.560Z,1.01
2023-01-29T18:11:48.964Z,1.12
2023-01-29T18:14:19.968Z,0.94
2023-01-29T18:16:57.333Z,0.77
2023-01-29T18:20:04.121Z,0.66
2023-01-29T18:22:37.563Z,0.58
2023-01-29T18:25:11.194Z,0.49
2023-01-29T18:27:42.290Z,0.42
2023-01-29T18:30:18.034Z,0.35
2023-01-29T18:32:50.112Z,0.29
2023-01-29T18:35:49.948Z,0.24
2023-01-29T18:38:17.846Z,0.20
2023-01-29T18:41:05.297Z,0.25
2023-01-29T18:44:32.459Z,0.68
2023-01-29T18:47:08.249Z,0.84
2023-01-29T18:49:45.322Z,0.68
2023-01-29T18:53:16.526Z,0.56
2023-01-29T18:55:59.417Z,0.51
2023-01-29T18:59:16.546Z,0.42
2023-01-29T19:01:58.757Z,0.36
2023-01-29T19:04:58.598Z,0.30
2023-01-29T19:08:43.227Z,0.25
2023-01-29T19:11:12.736Z,0.16
2023-01-29T19:13:47.284Z,0.10
2023-01-29T19:16:26.139Z,0.13
2023-01-29T19:19:31.253Z,0.49
2023-01-29T19:22:31.988Z,0.70
2023-01-29T19:25:07.342Z,0.60
2023-01-29T19:27:41.040Z,0.41
2023-01-29T19:30:23.686Z,0.26
2023-01-29T19:33:03.965Z,0.16
2023-01-29T19:35:45.162Z,0.05
2023-01-29T19:38:38.539Z,-0.07
2023-01-29T19:41:11.289Z,-0.14
2023-01-29T19:43:45.984Z,-0.20
2023-01-29T19:46:27.065Z,-0.26
2023-01-29T19:49:07.224Z,-0.33
2023-01-29T19:51:39.905Z,-0.35
2023-01-29T19:54:48.279Z,-0.03
2023-01-29T19:57:35.095Z,0.23
2023-01-29T20:00:12.266Z,0.14
2023-01-29T20:02:52.310Z,-0.00
2023-01-29T20:06:06.013Z,-0.06
2023-01-29T20:08:43.696Z,-0.07
2023-01-29T20:11:20.546Z,-0.13
2023-01-29T20:13:56.148Z,-0.08
2023-01-29T20:16:28.658Z,-0.10
2023-01-29T20:19:30.580Z,-0.08
2023-01-29T20:22:12.689Z,-0.11
2023-01-29T20:25:20.870Z,-0.09
2023-01-29T20:27:57.482Z,0.01
2023-01-29T20:30:49.760Z,0.41
2023-01-29T20:33:31.606Z,0.60
2023-01-29T20:37:16.414Z,0.43
2023-01-29T20:39:54.405Z,0.28
2023-01-29T20:42:30.524Z,0.19
2023-01-29T20:45:06.116Z,0.14
2023-01-29T20:47:37.760Z,0.11
2023-01-29T20:50:19.377Z,0.07
2023-01-29T20:53:21.553Z,0.04
2023-01-29T20:55:57.032Z,0.07
2023-01-29T20:58:46.782Z,0.47
2023-01-29T21:01:18.706Z,0.66
2023-01-29T21:03:55.817Z,0.53
2023-01-29T21:06:44.257Z,0.42
2023-01-29T21:10:09.508Z,0.37
2023-01-29T21:13:59.537Z,0.31
2023-01-29T21:16:33.375Z,0.24
2023-01-29T21:19:16.413Z,0.18
2023-01-29T21:21:57.448Z,0.15
2023-01-29T21:24:38.491Z,0.12
2023-01-29T21:27:20.429Z,0.15
2023-01-29T21:30:27.445Z,0.56
2023-01-29T21:33:01.059Z,0.75
2023-01-29T21:35:33.635Z,0.65
2023-01-29T21:38:14.463Z,0.55
2023-01-29T21:41:09.014Z,0.46
2023-01-29T21:43:45.173Z,0.43
2023-01-29T21:46:44.579Z,0.39
2023-01-29T21:49:22.246Z,0.37
2023-01-29T21:53:09.843Z,0.34
2023-01-29T21:55:43.933Z,0.46
2023-01-29T21:58:25.024Z,0.80
2023-01-29T22:01:36.743Z,0.93
2023-01-29T22:04:12.373Z,0.74
2023-01-29T22:06:58.029Z,0.65
2023-01-29T22:09:30.128Z,0.60
2023-01-29T22:12:09.840Z,0.54
2023-01-29T22:14:50.666Z,0.49
2023-01-29T22:17:29.018Z,0.46
2023-01-29T22:20:04.210Z,0.45
2023-01-29T22:22:57.795Z,0.47
2023-01-29T22:25:31.673Z,0.84
2023-01-29T22:28:06.824Z,0.88
2023-01-29T22:30:42.809Z,0.84
2023-01-29T22:33:19.233Z,0.73
2023-01-29T22:35:53.776Z,0.64
2023-01-29T22:38:23.548Z,0.59
2023-01-29T22:40:55.547Z,0.54
2023-01-29T22:43:25.551Z,0.52
2023-01-29T22:46:06.416Z,0.48
2023-01-29T22:48:38.949Z,0.46
2023-01-29T22:51:16.653Z,0.46
2023-01-29T22:54:00.526Z,0.80
2023-01-29T22:56:33.551Z,1.06
2023-01-29T22:59:33.348Z,1.13
2023-01-29T23:02:26.117Z,0.98
2023-01-29T23:04:55.363Z,0.90
2023-01-29T23:07:30.961Z,0.84
2023-01-29T23:10:03.670Z,0.80
2023-01-29T23:12:34.735Z,0.74
2023-01-29T23:15:05.486Z,0.69
2023-01-29T23:17:56.974Z,0.64
2023-01-29T23:20:31.638Z,0.59
2023-01-29T23:23:01.940Z,0.56
2023-01-29T23:29:15.705Z,1.11
2023-01-29T23:31:48.527Z,1.01
2023-01-29T23:34:22.973Z,0.84
2023-01-29T23:36:54.477Z,0.72
2023-01-29T23:39:48.531Z,0.64
2023-01-29T23:42:18.858Z,0.60
2023-01-29T23:44:54.417Z,0.54
2023-01-29T23:47:27.813Z,0.49
2023-01-29T23:49:57.755Z,0.43
2023-01-29T23:52:40.278Z,0.38
2023-01-29T23:55:23.771Z,0.39
2023-01-29T23:58:18.825Z,0.77
